createdAt,value
2023-04-26T00:01:08.925Z,79.13
2023-04-26T00:03:36.346Z,78.33
2023-04-26T00:06:08.245Z,78.03
2023-04-26T00:08:36.058Z,78.03
2023-04-26T00:11:03.075Z,78.48
2023-04-26T00:13:30.409Z,78.68
2023-04-26T00:15:57.580Z,79.14
2023-04-26T00:18:25.114Z,79.72
2023-04-26T00:20:52.167Z,79.97
2023-04-26T00:23:19.619Z,79.98
2023-04-26T00:25:46.616Z,79.77
2023-04-26T00:28:13.844Z,79.84
2023-04-26T00:30:47.111Z,79.96
2023-04-26T00:33:14.670Z,80.01
2023-04-26T00:35:42.332Z,80.38
2023-04-26T00:38:10.120Z,80.94
2023-04-26T00:40:37.145Z,81.38
2023-04-26T00:43:05.434Z,81.62
2023-04-26T00:45:33.857Z,82.08
2023-04-26T00:48:03.148Z,82.36
2023-04-26T00:50:30.863Z,82.58
2023-04-26T00:52:58.014Z,82.74
2023-04-26T00:55:26.853Z,82.90
2023-04-26T00:57:54.871Z,83.35
2023-04-26T01:00:22.436Z,83.34
2023-04-26T01:02:49.899Z,83.44
2023-04-26T01:05:17.582Z,83.61
2023-04-26T01:07:45.721Z,84.00
2023-04-26T01:10:13.045Z,84.24
2023-04-26T01:12:41.050Z,84.39
2023-04-26T01:15:09.846Z,84.30
2023-04-26T01:17:38.472Z,84.27
2023-04-26T01:20:09.407Z,84.14
2023-04-26T01:22:36.512Z,83.66
2023-04-26T01:25:05.291Z,83.27
2023-04-26T01:27:33.065Z,82.98
2023-04-26T01:30:00.418Z,82.82
2023-04-26T01:32:28.114Z,83.00
2023-04-26T01:34:57.472Z,82.94
2023-04-26T01:37:24.727Z,82.97
2023-04-26T01:39:52.017Z,83.01
2023-04-26T01:42:20.370Z,82.98
2023-04-26T01:44:47.713Z,83.28
2023-04-26T01:47:14.856Z,83.58
2023-04-26T01:49:41.928Z,84.16
2023-04-26T01:52:08.950Z,84.14
2023-04-26T01:54:36.591Z,83.97
2023-04-26T01:57:03.970Z,84.26
2023-04-26T01:59:31.445Z,84.49
2023-04-26T02:01:59.204Z,84.65
2023-04-26T02:04:27.258Z,84.73
2023-04-26T02:06:54.920Z,85.08
2023-04-26T02:09:24.116Z,85.20
2023-04-26T02:11:51.681Z,85.22
2023-04-26T02:14:20.003Z,85.62
2023-04-26T02:16:49.152Z,85.75
2023-04-26T02:19:16.430Z,85.97
2023-04-26T02:21:51.502Z,85.99
2023-04-26T02:24:18.596Z,86.20
2023-04-26T02:26:46.152Z,86.47
2023-04-26T02:29:13.373Z,86.90
2023-04-26T02:31:40.967Z,86.89
2023-04-26T02:34:08.217Z,87.17
2023-04-26T02:36:35.571Z,87.26
2023-04-26T02:39:03.247Z,87.36
2023-04-26T02:41:33.763Z,87.31
2023-04-26T02:44:01.315Z,87.28
2023-04-26T02:46:28.594Z,87.18
2023-04-26T02:48:55.720Z,86.98
2023-04-26T02:51:23.651Z,86.83
2023-04-26T02:53:50.874Z,86.66
2023-04-26T02:56:19.110Z,86.46
2023-04-26T02:58:46.775Z,86.27
2023-04-26T03:01:14.972Z,86.00
2023-04-26T03:03:42.731Z,85.44
2023-04-26T03:06:10.175Z,85.33
2023-04-26T03:08:37.548Z,85.55
2023-04-26T03:11:05.150Z,85.32
2023-04-26T03:13:32.440Z,85.16
2023-04-26T03:16:01.873Z,84.84
2023-04-26T03:18:30.117Z,84.60
2023-04-26T03:20:57.368Z,84.15
2023-04-26T03:23:25.138Z,84.47
2023-04-26T03:25:52.902Z,84.58
2023-04-26T03:28:21.070Z,84.73
2023-04-26T03:30:49.557Z,85.04
2023-04-26T03:33:17.149Z,84.85
2023-04-26T03:35:45.295Z,84.67
2023-04-26T03:38:12.641Z,84.82
2023-04-26T03:40:40.632Z,83.95
2023-04-26T03:43:07.968Z,82.44
2023-04-26T03:45:36.258Z,81.61
2023-04-26T03:48:06.024Z,81.13
2023-04-26T03:50:32.998Z,79.97
2023-04-26T03:53:01.184Z,79.13
2023-04-26T03:55:29.041Z,78.28
2023-04-26T03:57:56.327Z,76.84
2023-04-26T04:00:24.155Z,75.91
2023-04-26T04:02:52.584Z,75.13
2023-04-26T04:05:23.678Z,75.14
2023-04-26T04:07:51.857Z,74.95
2023-04-26T04:10:19.203Z,75.08
2023-04-26T04:12:46.603Z,74.73
2023-04-26T04:15:32.564Z,75.27
2023-04-26T04:18:00.996Z,75.02
2023-04-26T04:20:28.342Z,75.12
2023-04-26T04:22:58.908Z,74.92
2023-04-26T04:25:26.680Z,74.91
2023-04-26T04:27:54.258Z,75.21
2023-04-26T04:30:21.445Z,75.03
2023-04-26T04:32:48.657Z,74.85
2023-04-26T04:35:17.117Z,74.79
2023-04-26T04:37:44.292Z,74.23
2023-04-26T04:40:13.960Z,73.66
2023-04-26T04:42:45.228Z,73.82
2023-04-26T04:45:12.903Z,73.89
2023-04-26T04:47:40.299Z,73.58
2023-04-26T04:50:08.359Z,73.78
2023-04-26T04:52:35.640Z,73.81
2023-04-26T04:55:04.058Z,73.56
2023-04-26T04:57:32.736Z,73.16
2023-04-26T05:00:03.973Z,72.96
2023-04-26T05:02:31.957Z,72.19
2023-04-26T05:05:02.192Z,70.83
2023-04-26T05:07:29.444Z,69.57
2023-04-26T05:09:56.746Z,68.56
2023-04-26T05:12:24.028Z,69.12
2023-04-26T05:14:51.393Z,68.93
2023-04-26T05:17:18.940Z,68.57
2023-04-26T05:19:46.397Z,68.68
2023-04-26T05:22:18.768Z,67.37
2023-04-26T05:24:47.766Z,66.98
2023-04-26T05:27:15.440Z,67.22
2023-04-26T05:29:54.996Z,67.22
2023-04-26T05:32:35.793Z,65.88
2023-04-26T05:35:14.049Z,65.45
2023-04-26T05:37:41.194Z,65.72
2023-04-26T05:40:10.301Z,65.82
2023-04-26T05:42:37.346Z,64.99
2023-04-26T05:45:05.715Z,63.05
2023-04-26T05:47:33.329Z,62.91
2023-04-26T05:50:00.730Z,62.87
2023-04-26T05:52:28.598Z,60.89
2023-04-26T05:54:55.653Z,60.21
2023-04-26T05:57:22.871Z,59.60
2023-04-26T05:59:50.147Z,59.98
2023-04-26T06:02:17.711Z,59.82
2023-04-26T06:04:45.424Z,57.94
2023-04-26T06:07:14.870Z,56.48
2023-04-26T06:09:42.025Z,56.29
2023-04-26T06:12:09.273Z,54.65
2023-04-26T06:14:39.394Z,53.65
2023-04-26T06:17:09.969Z,53.00
2023-04-26T06:19:37.198Z,52.25
2023-04-26T06:22:04.429Z,51.47
2023-04-26T06:24:31.578Z,51.57
2023-04-26T06:26:59.033Z,51.28
2023-04-26T06:29:26.093Z,51.09
2023-04-26T06:31:53.614Z,49.76
2023-04-26T06:34:21.406Z,47.86
2023-04-26T06:36:48.805Z,47.24
2023-04-26T06:39:17.551Z,46.43
2023-04-26T06:41:44.811Z,45.57
2023-04-26T06:44:12.265Z,44.47
2023-04-26T06:46:43.063Z,44.36
2023-04-26T06:49:11.890Z,44.34
2023-04-26T06:51:39.339Z,44.94
2023-04-26T06:54:06.527Z,45.22
2023-04-26T06:56:33.853Z,45.42
2023-04-26T06:59:05.158Z,45.06
2023-04-26T07:01:36.194Z,43.37
2023-04-26T07:04:04.841Z,43.40
2023-04-26T07:06:32.279Z,43.30
2023-04-26T07:09:01.333Z,43.10
2023-04-26T07:11:29.031Z,42.34
2023-04-26T07:13:57.189Z,42.75
2023-04-26T07:16:24.632Z,43.62
2023-04-26T07:18:58.435Z,44.25
2023-04-26T07:21:27.126Z,44.02
2023-04-26T07:23:56.227Z,43.50
2023-04-26T07:26:23.602Z,43.07
2023-04-26T07:28:52.489Z,43.46
2023-04-26T07:31:22.825Z,42.99
2023-04-26T07:33:50.109Z,41.31
2023-04-26T07:36:17.284Z,42.32
2023-04-26T07:38:44.881Z,41.66
2023-04-26T07:41:13.274Z,41.49
2023-04-26T07:43:40.642Z,41.38
2023-04-26T07:46:08.066Z,42.63
2023-04-26T07:48:35.432Z,43.00
2023-04-26T07:51:10.111Z,41.90
2023-04-26T07:53:38.918Z,41.04
2023-04-26T07:56:08.061Z,41.47
2023-04-26T07:58:36.633Z,41.57
2023-04-26T08:01:04.414Z,41.79
2023-04-26T08:03:31.815Z,42.72
2023-04-26T08:06:00.091Z,42.40
2023-04-26T08:08:28.043Z,41.20
2023-04-26T08:10:56.098Z,40.33
2023-04-26T08:13:23.507Z,41.45
2023-04-26T08:15:50.870Z,41.75
2023-04-26T08:18:18.120Z,41.97
2023-04-26T08:20:45.376Z,41.40
2023-04-26T08:23:13.141Z,41.68
2023-04-26T08:25:40.225Z,42.11
2023-04-26T08:28:08.865Z,41.20
2023-04-26T08:30:36.255Z,42.28
2023-04-26T08:33:03.745Z,42.20
2023-04-26T08:35:31.025Z,43.00
2023-04-26T08:37:58.125Z,43.49
2023-04-26T08:40:25.445Z,44.22
2023-04-26T08:42:54.221Z,42.57
2023-04-26T08:45:21.581Z,42.30
2023-04-26T08:47:53.858Z,41.81
2023-04-26T08:50:22.379Z,42.38
2023-04-26T08:52:51.628Z,41.66
2023-04-26T08:55:20.397Z,41.14
2023-04-26T08:57:49.020Z,42.03
2023-04-26T09:00:19.949Z,42.18
2023-04-26T09:02:50.152Z,40.46
2023-04-26T09:05:17.732Z,41.11
2023-04-26T09:07:47.232Z,39.67
2023-04-26T09:10:21.691Z,39.41
2023-04-26T09:12:55.649Z,40.98
2023-04-26T09:15:23.457Z,42.29
2023-04-26T09:17:52.252Z,43.36
2023-04-26T09:20:28.090Z,41.92
2023-04-26T09:23:06.684Z,41.87
2023-04-26T09:25:34.139Z,40.78
2023-04-26T09:28:01.902Z,40.59
2023-04-26T09:30:29.462Z,41.61
2023-04-26T09:33:07.154Z,41.22
2023-04-26T09:35:35.337Z,41.79
2023-04-26T09:38:13.991Z,42.15
2023-04-26T09:40:46.788Z,42.35
2023-04-26T09:43:19.665Z,43.04
2023-04-26T09:45:55.760Z,43.65
2023-04-26T09:48:31.004Z,42.27
2023-04-26T09:51:09.444Z,41.85
2023-04-26T09:53:42.100Z,41.22
2023-04-26T09:56:15.500Z,41.68
2023-04-26T09:59:00.888Z,42.52
2023-04-26T10:01:31.611Z,41.75
2023-04-26T10:04:01.898Z,39.38
2023-04-26T10:06:29.598Z,39.89
2023-04-26T10:08:58.175Z,39.70
2023-04-26T10:11:25.641Z,39.07
2023-04-26T10:13:52.815Z,39.22
2023-04-26T10:16:21.566Z,39.21
2023-04-26T10:18:49.788Z,38.90
2023-04-26T10:21:23.301Z,38.91
2023-04-26T10:23:50.532Z,39.13
2023-04-26T10:26:47.795Z,40.12
2023-04-26T10:29:15.105Z,41.29
2023-04-26T10:32:02.151Z,42.61
2023-04-26T10:34:33.359Z,43.63
2023-04-26T10:37:11.898Z,44.06
2023-04-26T10:39:40.145Z,44.06
2023-04-26T10:42:27.716Z,43.75
2023-04-26T10:44:56.682Z,44.71
2023-04-26T10:47:24.882Z,45.09
2023-04-26T10:49:52.780Z,45.59
2023-04-26T10:52:21.301Z,45.15
2023-04-26T10:54:55.975Z,44.78
2023-04-26T10:57:24.823Z,44.84
2023-04-26T11:00:11.221Z,44.23
2023-04-26T11:02:53.661Z,43.94
2023-04-26T11:05:39.073Z,43.75
2023-04-26T11:08:08.060Z,43.97
2023-04-26T11:10:38.016Z,44.17
2023-04-26T11:13:05.181Z,44.87
2023-04-26T11:15:32.548Z,45.25
2023-04-26T11:18:03.033Z,45.72
2023-04-26T11:20:33.542Z,45.98
2023-04-26T11:23:01.247Z,46.66
2023-04-26T11:25:29.175Z,47.48
2023-04-26T11:28:02.810Z,47.59
2023-04-26T11:30:31.897Z,47.75
2023-04-26T11:33:04.326Z,48.33
2023-04-26T11:35:35.404Z,48.52
2023-04-26T11:38:04.804Z,47.79
2023-04-26T11:40:32.419Z,48.00
2023-04-26T11:43:04.469Z,48.30
2023-04-26T11:45:32.594Z,49.35
2023-04-26T11:48:01.123Z,48.82
2023-04-26T11:50:28.337Z,48.95
2023-04-26T11:52:56.324Z,49.02
2023-04-26T11:55:31.901Z,48.90
2023-04-26T11:57:59.719Z,48.20
2023-04-26T12:00:26.991Z,47.47
2023-04-26T12:02:54.649Z,47.61
2023-04-26T12:05:32.280Z,48.09
2023-04-26T12:08:00.191Z,48.38
2023-04-26T12:10:29.224Z,48.30
2023-04-26T12:12:57.085Z,48.52
2023-04-26T12:15:25.376Z,48.61
2023-04-26T12:17:55.974Z,48.60
2023-04-26T12:20:34.936Z,49.17
2023-04-26T12:23:06.450Z,48.91
2023-04-26T12:25:34.463Z,49.04
2023-04-26T12:28:03.067Z,48.49
2023-04-26T12:30:30.391Z,48.88
2023-04-26T12:33:15.512Z,49.91
2023-04-26T12:35:44.551Z,49.87
2023-04-26T12:38:12.597Z,50.28
2023-04-26T12:40:39.809Z,50.22
2023-04-26T12:43:06.907Z,48.44
2023-04-26T12:45:34.209Z,47.95
2023-04-26T12:48:02.814Z,47.66
2023-04-26T12:50:30.091Z,48.28
2023-04-26T12:52:57.744Z,48.29
2023-04-26T12:55:25.247Z,48.65
2023-04-26T12:57:52.379Z,49.01
2023-04-26T13:00:19.937Z,49.55
2023-04-26T13:02:47.332Z,50.28
2023-04-26T13:05:14.643Z,50.71
2023-04-26T13:07:42.659Z,50.51
2023-04-26T13:10:12.918Z,50.49
2023-04-26T13:12:40.437Z,51.20
2023-04-26T13:15:08.204Z,51.13
2023-04-26T13:17:36.074Z,50.97
2023-04-26T13:20:04.671Z,50.98
2023-04-26T13:22:31.775Z,50.69
2023-04-26T13:24:58.970Z,50.60
2023-04-26T13:27:29.186Z,51.21
2023-04-26T13:29:58.624Z,51.64
2023-04-26T13:32:25.959Z,51.15
2023-04-26T13:34:55.158Z,51.48
2023-04-26T13:37:23.457Z,50.08
2023-04-26T13:39:50.650Z,49.61
2023-04-26T13:42:18.004Z,49.45
2023-04-26T13:44:45.232Z,48.56
2023-04-26T13:47:12.328Z,48.11
2023-04-26T13:49:41.907Z,47.58
2023-04-26T13:52:09.345Z,47.49
2023-04-26T13:54:37.168Z,47.16
2023-04-26T13:57:04.536Z,47.58
2023-04-26T13:59:31.963Z,47.35
2023-04-26T14:01:59.447Z,47.75
2023-04-26T14:04:27.434Z,47.36
2023-04-26T14:06:54.765Z,47.47
2023-04-26T14:09:22.138Z,47.86
2023-04-26T14:11:57.091Z,48.03
2023-04-26T14:14:31.179Z,48.12
2023-04-26T14:16:58.422Z,48.01
2023-04-26T14:19:26.398Z,48.26
2023-04-26T14:21:55.486Z,47.60
2023-04-26T14:24:22.550Z,47.68
2023-04-26T14:26:49.642Z,47.91
2023-04-26T14:29:16.800Z,47.44
2023-04-26T14:31:44.191Z,47.30
2023-04-26T14:34:11.302Z,47.31
2023-04-26T14:36:38.400Z,47.25
2023-04-26T14:39:05.838Z,46.92
2023-04-26T14:41:32.932Z,47.30
2023-04-26T14:44:00.022Z,47.93
2023-04-26T14:46:27.604Z,48.08
2023-04-26T14:48:56.949Z,48.23
2023-04-26T14:51:24.530Z,48.04
2023-04-26T14:53:51.917Z,47.57
2023-04-26T14:56:19.057Z,47.88
2023-04-26T14:58:46.628Z,47.84
2023-04-26T15:01:14.432Z,47.75
2023-04-26T15:03:41.672Z,48.05
2023-04-26T15:06:12.297Z,48.36
2023-04-26T15:08:39.684Z,48.36
2023-04-26T15:11:07.187Z,48.71
2023-04-26T15:13:36.128Z,49.00
2023-04-26T15:16:07.966Z,49.14
2023-04-26T15:18:35.970Z,49.01
2023-04-26T15:21:03.974Z,49.08
2023-04-26T15:23:31.454Z,49.42
2023-04-26T15:26:03.289Z,49.41
2023-04-26T15:28:31.211Z,49.53
2023-04-26T15:31:07.060Z,49.81
2023-04-26T15:33:35.217Z,50.38
2023-04-26T15:36:03.045Z,50.45
2023-04-26T15:38:31.782Z,50.62
2023-04-26T15:40:58.976Z,50.98
2023-04-26T15:43:26.058Z,51.44
2023-04-26T15:45:53.391Z,51.62
2023-04-26T15:48:21.172Z,52.01
2023-04-26T15:50:48.302Z,52.28
2023-04-26T15:53:16.356Z,52.64
2023-04-26T15:55:43.952Z,52.91
2023-04-26T15:58:11.455Z,53.30
2023-04-26T16:00:38.954Z,53.32
2023-04-26T16:03:07.796Z,53.38
2023-04-26T16:05:36.429Z,53.73
2023-04-26T16:08:04.034Z,53.78
2023-04-26T16:10:31.561Z,53.83
2023-04-26T16:12:59.048Z,54.12
2023-04-26T16:15:27.131Z,54.58
2023-04-26T16:17:54.599Z,54.65
2023-04-26T16:20:21.891Z,54.82
2023-04-26T16:22:50.123Z,54.83
2023-04-26T16:25:17.468Z,55.11
2023-04-26T16:27:44.832Z,55.75
2023-04-26T16:30:12.785Z,55.58
2023-04-26T16:32:40.454Z,55.56
2023-04-26T16:35:09.001Z,55.57
2023-04-26T16:37:39.580Z,55.73
2023-04-26T16:40:07.984Z,55.99
2023-04-26T16:42:35.441Z,56.23
2023-04-26T16:45:03.840Z,56.47
2023-04-26T16:47:31.766Z,56.88
2023-04-26T16:49:59.727Z,56.95
2023-04-26T16:52:26.918Z,57.21
2023-04-26T16:54:54.554Z,57.57
2023-04-26T16:57:22.304Z,57.73
2023-04-26T16:59:50.384Z,57.98
2023-04-26T17:02:18.073Z,57.90
2023-04-26T17:04:46.614Z,58.05
2023-04-26T17:07:14.220Z,57.82
2023-04-26T17:09:41.986Z,57.89
2023-04-26T17:12:11.035Z,57.93
2023-04-26T17:14:39.996Z,57.67
2023-04-26T17:17:07.652Z,57.86
2023-04-26T17:19:34.980Z,57.92
2023-04-26T17:22:03.299Z,58.18
2023-04-26T17:24:31.399Z,58.34
2023-04-26T17:26:58.827Z,58.45
2023-04-26T17:29:27.588Z,57.77
2023-04-26T17:31:57.918Z,57.61
2023-04-26T17:34:26.633Z,57.72
2023-04-26T17:36:54.374Z,57.56
2023-04-26T17:39:22.315Z,57.53
2023-04-26T17:41:51.565Z,57.61
2023-04-26T17:44:20.431Z,57.52
2023-04-26T17:46:48.950Z,57.60
2023-04-26T17:49:17.527Z,57.48
2023-04-26T17:51:45.848Z,57.38
2023-04-26T17:54:14.267Z,57.41
2023-04-26T17:56:43.693Z,57.55
2023-04-26T17:59:13.894Z,57.61
2023-04-26T18:01:44.225Z,57.64
2023-04-26T18:04:15.321Z,57.65
2023-04-26T18:06:49.264Z,57.68
2023-04-26T18:09:19.560Z,57.76
2023-04-26T18:11:54.436Z,57.84
2023-04-26T18:14:26.420Z,57.84
2023-04-26T18:16:58.349Z,57.76
2023-04-26T18:19:30.268Z,57.88
2023-04-26T18:22:00.762Z,57.83
2023-04-26T18:24:34.206Z,58.11
2023-04-26T18:27:17.191Z,58.36
2023-04-26T18:29:50.270Z,58.47
2023-04-26T18:32:26.918Z,58.75
2023-04-26T18:34:58.265Z,58.91
2023-04-26T18:37:28.800Z,59.09
2023-04-26T18:40:02.268Z,59.27
2023-04-26T18:42:32.693Z,59.27
2023-04-26T18:45:04.650Z,59.44
2023-04-26T18:47:37.310Z,59.74
2023-04-26T18:50:08.452Z,59.90
2023-04-26T18:52:40.266Z,60.00
2023-04-26T18:55:10.224Z,59.91
2023-04-26T18:57:40.215Z,60.00
2023-04-26T19:00:10.189Z,59.95
2023-04-26T19:10:35.633Z,60.01
2023-04-26T19:13:03.299Z,60.06
2023-04-26T19:15:31.085Z,60.23
2023-04-26T19:17:58.441Z,60.41
2023-04-26T19:20:26.788Z,60.47
2023-04-26T19:22:55.041Z,60.80
2023-04-26T19:25:23.011Z,60.60
2023-04-26T19:27:50.465Z,60.75
2023-04-26T19:30:17.848Z,60.86
2023-04-26T19:32:46.140Z,60.91
2023-04-26T19:35:13.170Z,60.96
2023-04-26T19:37:40.667Z,61.08
2023-04-26T19:40:09.774Z,61.16
2023-04-26T19:42:37.076Z,61.41
2023-04-26T19:45:05.900Z,61.50
2023-04-26T19:47:33.969Z,61.60
2023-04-26T19:50:02.026Z,61.78
2023-04-26T19:52:29.466Z,61.96
2023-04-26T19:54:56.683Z,62.14
2023-04-26T19:57:23.890Z,62.31
2023-04-26T19:59:51.278Z,62.46
2023-04-26T20:02:19.061Z,62.61
2023-04-26T20:04:46.545Z,63.08
2023-04-26T20:07:13.700Z,63.36
2023-04-26T20:09:41.255Z,63.44
2023-04-26T20:12:08.914Z,63.51
2023-04-26T20:14:37.395Z,63.55
2023-04-26T20:17:05.524Z,63.89
2023-04-26T20:19:33.228Z,64.03
2023-04-26T20:22:00.648Z,64.24
2023-04-26T20:24:28.045Z,64.44
2023-04-26T20:26:56.123Z,64.80
2023-04-26T20:29:24.281Z,64.79
2023-04-26T20:31:51.446Z,64.91
2023-04-26T20:34:18.892Z,64.75
2023-04-26T20:36:46.148Z,64.71
2023-04-26T20:39:13.701Z,65.02
2023-04-26T20:41:41.176Z,65.49
2023-04-26T20:44:09.850Z,65.28
2023-04-26T20:46:37.654Z,65.33
2023-04-26T20:49:06.289Z,66.68
2023-04-26T20:51:33.871Z,67.70
2023-04-26T20:54:01.043Z,68.53
2023-04-26T20:56:28.772Z,69.23
2023-04-26T20:58:57.258Z,69.62
2023-04-26T21:01:24.738Z,69.97
2023-04-26T21:03:52.144Z,70.25
2023-04-26T21:06:19.541Z,70.45
2023-04-26T21:08:46.778Z,70.17
2023-04-26T21:11:14.038Z,70.51
2023-04-26T21:13:41.688Z,69.90
2023-04-26T21:16:08.969Z,69.88
2023-04-26T21:18:36.915Z,70.42
2023-04-26T21:21:04.880Z,70.57
2023-04-26T21:23:33.049Z,70.98
2023-04-26T21:26:00.205Z,71.26
2023-04-26T21:28:27.560Z,71.21
2023-04-26T21:31:05.799Z,71.05
2023-04-26T21:33:33.341Z,71.29
2023-04-26T21:36:00.858Z,71.28
2023-04-26T21:38:29.480Z,71.45
2023-04-26T21:40:56.878Z,71.56
2023-04-26T21:43:24.789Z,71.67
2023-04-26T21:45:56.044Z,71.53
2023-04-26T21:48:24.114Z,71.27
2023-04-26T21:50:51.362Z,70.60
2023-04-26T21:53:18.726Z,69.91
2023-04-26T21:55:53.043Z,69.63
2023-04-26T21:58:21.516Z,69.18
2023-04-26T22:00:50.164Z,68.88
2023-04-26T22:03:18.156Z,69.10
2023-04-26T22:05:45.928Z,68.98
2023-04-26T22:08:14.008Z,69.34
2023-04-26T22:10:41.559Z,69.50
2023-04-26T22:13:09.036Z,69.70
2023-04-26T22:15:36.268Z,69.62
2023-04-26T22:18:04.352Z,69.80
2023-04-26T22:20:32.030Z,69.84
2023-04-26T22:22:59.362Z,69.93
2023-04-26T22:25:26.824Z,70.01
2023-04-26T22:27:54.101Z,69.77
2023-04-26T22:30:26.003Z,69.86
2023-04-26T22:32:57.465Z,69.84
2023-04-26T22:35:25.964Z,69.72
2023-04-26T22:37:54.680Z,69.98
2023-04-26T22:40:21.903Z,69.99
2023-04-26T22:42:49.263Z,70.09
2023-04-26T22:45:17.115Z,70.38
2023-04-26T22:47:44.395Z,70.57
2023-04-26T22:50:12.043Z,70.94
2023-04-26T22:52:39.385Z,71.13
2023-04-26T22:55:07.716Z,71.23
2023-04-26T22:57:34.927Z,71.46
2023-04-26T23:00:04.016Z,71.46
2023-04-26T23:02:32.236Z,71.55
2023-04-26T23:05:01.227Z,72.31
2023-04-26T23:07:28.950Z,72.86
2023-04-26T23:09:56.480Z,73.21
2023-04-26T23:12:24.476Z,72.95
2023-04-26T23:14:51.820Z,72.90
2023-04-26T23:17:19.926Z,72.46
2023-04-26T23:19:47.149Z,72.33
2023-04-26T23:22:15.342Z,72.23
2023-04-26T23:24:42.682Z,72.11
2023-04-26T23:27:10.133Z,72.36
2023-04-26T23:29:37.798Z,72.39
2023-04-26T23:32:05.363Z,72.37
2023-04-26T23:34:33.118Z,72.44
2023-04-26T23:37:07.177Z,72.64
2023-04-26T23:39:35.857Z,72.47
2023-04-26T23:42:04.058Z,72.64
2023-04-26T23:44:31.542Z,72.61
2023-04-26T23:46:59.003Z,72.71
2023-04-26T23:49:26.464Z,72.86
2023-04-26T23:51:54.136Z,72.83
2023-04-26T23:54:21.375Z,73.24
2023-04-26T23:56:48.834Z,73.35
2023-04-26T23:59:17.006Z,73.69
